Rutland, VT

2:42 PM EDT on August 23, 2017 (GMT -0400)
Rutland State

Weather History for KRUT - March, 2014

Change the Weather History Date:

Monday, March 31, 2014

  Actual Average Record
Temperature  
Mean Temperature 30 °F -  
Max Temperature 32 °F - 84 °F (1998)
Min Temperature 27 °F - 3 °F (1954)
Degree Days  
Heating Degree Days 35    
Month to date heating degree days 1317  
Since 1 July heating degree days 6977  
Cooling Degree Days 0    
Month to date cooling degree days 0  
Year to date cooling degree days 0  
Moisture  
Dew Point 25 °F    
Average Humidity 82    
Maximum Humidity 92    
Minimum Humidity 72    
Precipitation  
Precipitation 0.00 in - 0.85 in (1962)
Month to date precipitation 1.70  
Year to date precipitation 5.05  
Sea Level Pressure  
Sea Level Pressure 29.98 in    
Wind  
Wind Speed 12 mph (NNW)    
Max Wind Speed 20 mph    
Max Gust Speed 28 mph    
Visibility 10 miles    
Events      
T = Trace of Precipitation, MM = Missing Value Source: NWS Daily Summary

Daily Weather History Graph

Daily Weather History Graph

Search for Another Location

Airport or City:

Trip Planner

Search our weather history database for the weather conditions in past years. The results will help you decide how hot, cold, wet, or windy it might be!

Date:

Astronomy

Mar. 31, 2014 Rise Set
Actual Time 6:35 AM EDT 7:17 PM EDT
Civil Twilight 6:06 AM EDT 7:46 PM EDT
Nautical Twilight 5:32 AM EDT 8:20 PM EDT
Astronomical Twilight 4:56 AM EDT 8:56 PM EDT
Moon 6:55 AM EDT (3/31) 8:35 PM EDT (3/31)
Length of Visible Light 13h 39m
Length of Day
12h 41m
New Moon, 1% of the Moon is Illuminated
Mar 31
New Moon
Apr 7
First Quarter
Apr 15
Full
Apr 22
Last Quarter
Apr 29
New

Hourly Weather History & Observations

Time (EDT) Temp. Windchill Dew Point Humidity Pressure Visibility Wind Dir Wind Speed Gust Speed Precip Events Conditions
12:15 AM 28.4 °F 17.5 °F 28.4 °F 100% 29.82 in 3.0 mi North 13.8 mph 18.4 mph N/A   Overcast
12:35 AM 28.4 °F 16.6 °F 26.6 °F 93% 29.82 in 3.0 mi North 16.1 mph 21.9 mph N/A   Overcast
12:55 AM 28.4 °F 19.7 °F 26.6 °F 93% 29.81 in 5.0 mi NNW 9.2 mph 20.7 mph N/A   Overcast
1:15 AM 28.4 °F 19.7 °F 26.6 °F 93% 29.81 in 4.0 mi NNW 9.2 mph 19.6 mph N/A   Overcast
1:35 AM 28.4 °F 18.0 °F 26.6 °F 93% 29.80 in 9.0 mi North 12.7 mph 18.4 mph N/A   Overcast
1:55 AM 28.4 °F 18.5 °F 26.6 °F 93% 29.80 in 10.0 mi NNW 11.5 mph 18.4 mph N/A   Overcast
2:15 AM 28.4 °F 18.5 °F 26.6 °F 93% 29.82 in 10.0 mi NNW 11.5 mph 17.3 mph N/A   Overcast
2:35 AM 28.4 °F 17.5 °F 26.6 °F 93% 29.83 in 10.0 mi NNW 13.8 mph 19.6 mph N/A   Overcast
2:55 AM 28.4 °F 19.1 °F 26.6 °F 93% 29.84 in 10.0 mi NNW 10.4 mph 16.1 mph N/A   Overcast
3:15 AM 28.4 °F 18.5 °F 26.6 °F 93% 29.84 in 10.0 mi North 11.5 mph 16.1 mph N/A   Overcast
3:35 AM 28.4 °F 19.7 °F 24.8 °F 86% 29.85 in 10.0 mi NNW 9.2 mph - N/A   Overcast
3:55 AM 28.4 °F 19.1 °F 26.6 °F 93% 29.86 in 10.0 mi NNW 10.4 mph - N/A   Overcast
4:15 AM 28.4 °F 19.7 °F 26.6 °F 93% 29.86 in 10.0 mi NNW 9.2 mph 20.7 mph N/A   Overcast
4:35 AM 28.4 °F 18.0 °F 26.6 °F 93% 29.86 in 10.0 mi NNW 12.7 mph 19.6 mph N/A   Overcast
4:55 AM 28.4 °F 19.1 °F 26.6 °F 93% 29.87 in 10.0 mi NNW 10.4 mph 19.6 mph N/A   Overcast
5:15 AM 26.6 °F 14.7 °F 24.8 °F 93% 29.87 in 10.0 mi NNW 15.0 mph 20.7 mph N/A   Overcast
5:35 AM 28.4 °F 19.1 °F 24.8 °F 86% 29.88 in 10.0 mi NNW 10.4 mph 21.9 mph N/A   Overcast
5:55 AM 28.4 °F 18.5 °F 26.6 °F 93% 29.89 in 10.0 mi NNW 11.5 mph 21.9 mph N/A   Overcast
6:15 AM 28.4 °F 18.5 °F 26.6 °F 93% 29.90 in 10.0 mi NNW 11.5 mph 18.4 mph N/A   Overcast
6:35 AM 28.4 °F 18.0 °F 26.6 °F 93% 29.91 in 10.0 mi NNW 12.7 mph 18.4 mph N/A   Overcast
6:55 AM 28.4 °F 19.1 °F 26.6 °F 93% 29.92 in 10.0 mi NW 10.4 mph - N/A   Overcast
7:15 AM 28.4 °F 19.7 °F 24.8 °F 86% 29.93 in 10.0 mi North 9.2 mph 17.3 mph N/A   Overcast
7:35 AM 28.4 °F 17.0 °F 24.8 °F 86% 29.93 in 10.0 mi North 15.0 mph 21.9 mph N/A   Overcast
7:55 AM 28.4 °F 16.6 °F 24.8 °F 86% 29.94 in 10.0 mi North 16.1 mph 23.0 mph N/A   Overcast
8:15 AM 28.4 °F 17.5 °F 24.8 °F 86% 29.95 in 10.0 mi North 13.8 mph 21.9 mph N/A   Overcast
8:35 AM 28.4 °F 16.2 °F 24.8 °F 86% 29.96 in 10.0 mi NNW 17.3 mph 24.2 mph N/A   Overcast
8:55 AM 28.4 °F 18.5 °F 24.8 °F 86% 29.96 in 10.0 mi NNW 11.5 mph 24.2 mph N/A   Overcast
9:15 AM 28.4 °F 17.0 °F 24.8 °F 86% 29.97 in 10.0 mi North 15.0 mph 20.7 mph N/A   Overcast
9:35 AM 28.4 °F 19.1 °F 24.8 °F 86% 29.97 in 10.0 mi North 10.4 mph 19.6 mph N/A   Overcast
9:55 AM 28.4 °F 19.1 °F 24.8 °F 86% 29.97 in 10.0 mi NNW 10.4 mph 18.4 mph N/A   Overcast
10:15 AM 28.4 °F 19.1 °F 24.8 °F 86% 29.97 in 10.0 mi NNW 10.4 mph 18.4 mph N/A   Overcast
10:35 AM 28.4 °F 18.0 °F 26.6 °F 93% 29.97 in 10.0 mi NNW 12.7 mph 18.4 mph N/A   Overcast
10:55 AM 28.4 °F 16.6 °F 24.8 °F 86% 29.97 in 10.0 mi NNW 16.1 mph 23.0 mph N/A   Overcast
11:15 AM 28.4 °F 16.2 °F 24.8 °F 86% 29.97 in 10.0 mi NNW 17.3 mph 23.0 mph N/A   Overcast
11:35 AM 28.4 °F 17.5 °F 24.8 °F 86% 29.97 in 10.0 mi NNW 13.8 mph 25.3 mph N/A   Overcast
11:55 AM 28.4 °F 16.2 °F 24.8 °F 86% 29.97 in 10.0 mi NNW 17.3 mph 23.0 mph N/A   Overcast
12:15 PM 28.4 °F 17.5 °F 24.8 °F 86% 29.97 in 10.0 mi NNW 13.8 mph 27.6 mph N/A   Overcast
12:35 PM 28.4 °F 18.0 °F 24.8 °F 86% 29.98 in 10.0 mi NNW 12.7 mph 24.2 mph N/A   Overcast
12:55 PM 28.4 °F 17.0 °F 24.8 °F 86% 29.98 in 10.0 mi NW 15.0 mph 27.6 mph N/A   Overcast
1:15 PM 28.4 °F 16.2 °F 24.8 °F 86% 29.99 in 10.0 mi NNW 17.3 mph 23.0 mph N/A   Overcast
1:35 PM 28.4 °F 19.1 °F 24.8 °F 86% 29.99 in 10.0 mi NNW 10.4 mph 27.6 mph N/A   Overcast
1:55 PM 28.4 °F 17.0 °F 24.8 °F 86% 29.99 in 10.0 mi NNW 15.0 mph 24.2 mph N/A   Overcast
2:15 PM 30.2 °F 19.3 °F 24.8 °F 80% 30.00 in 10.0 mi NNW 15.0 mph 24.2 mph N/A   Overcast
2:35 PM 30.2 °F 19.3 °F 24.8 °F 80% 30.01 in 10.0 mi NNW 15.0 mph 27.6 mph N/A   Overcast
2:55 PM 30.2 °F 17.8 °F 24.8 °F 80% 30.01 in 10.0 mi NNW 19.6 mph 27.6 mph N/A   Overcast
3:15 PM 30.2 °F 19.8 °F 24.8 °F 80% 30.02 in 10.0 mi NNW 13.8 mph 27.6 mph N/A   Overcast
3:35 PM 30.2 °F 19.3 °F 24.8 °F 80% 30.02 in 10.0 mi NNW 15.0 mph 24.2 mph N/A   Overcast
3:55 PM 30.2 °F 21.9 °F 24.8 °F 80% 30.03 in 10.0 mi North 9.2 mph 21.9 mph N/A   Overcast
4:15 PM 30.2 °F 20.2 °F 24.8 °F 80% 30.04 in 10.0 mi NNW 12.7 mph 23.0 mph N/A   Overcast
4:35 PM 30.2 °F 20.8 °F 24.8 °F 80% 30.04 in 10.0 mi NNW 11.5 mph 19.6 mph N/A   Overcast
4:55 PM 30.2 °F 20.2 °F 24.8 °F 80% 30.05 in 10.0 mi NNW 12.7 mph 19.6 mph N/A   Overcast
5:15 PM 30.2 °F 21.9 °F 24.8 °F 80% 30.06 in 10.0 mi NW 9.2 mph 19.6 mph N/A   Overcast
5:35 PM 30.2 °F 20.8 °F 24.8 °F 80% 30.07 in 10.0 mi North 11.5 mph 19.6 mph N/A   Overcast
5:55 PM 30.2 °F 22.6 °F 24.8 °F 80% 30.08 in 10.0 mi NNW 8.1 mph 18.4 mph N/A   Overcast
6:15 PM 30.2 °F 21.3 °F 24.8 °F 80% 30.09 in 10.0 mi NNW 10.4 mph 18.4 mph N/A   Overcast
6:35 PM 30.2 °F 21.9 °F 24.8 °F 80% 30.09 in 10.0 mi NNW 9.2 mph 16.1 mph N/A   Overcast
6:55 PM 32.0 °F 24.2 °F 24.8 °F 75% 30.09 in 10.0 mi NNW 9.2 mph - N/A   Overcast
7:15 PM 32.0 °F 24.8 °F 24.8 °F 75% 30.10 in 10.0 mi NNW 8.1 mph 16.1 mph N/A   Overcast
7:35 PM 32.0 °F 23.6 °F 24.8 °F 75% 30.10 in 10.0 mi NNW 10.4 mph - N/A   Overcast
7:55 PM 32.0 °F 24.8 °F 24.8 °F 75% 30.10 in 10.0 mi North 8.1 mph - N/A   Overcast
8:15 PM 32.0 °F 25.6 °F 26.6 °F 80% 30.11 in 10.0 mi NNW 6.9 mph - N/A   Overcast
8:35 PM 32.0 °F 24.2 °F 26.6 °F 80% 30.11 in 10.0 mi North 9.2 mph - N/A   Overcast
8:55 PM 32.0 °F 24.8 °F 24.8 °F 75% 30.11 in 10.0 mi North 8.1 mph - N/A   Overcast
9:15 PM 32.0 °F 24.2 °F 24.8 °F 75% 30.11 in 10.0 mi North 9.2 mph - N/A   Overcast
9:35 PM 32.0 °F 25.6 °F 26.6 °F 80% 30.11 in 10.0 mi North 6.9 mph - N/A   Overcast
9:55 PM 32.0 °F 25.6 °F 26.6 °F 80% 30.11 in 10.0 mi NNW 6.9 mph - N/A   Overcast
10:15 PM 32.0 °F 24.2 °F 24.8 °F 75% 30.11 in 10.0 mi NNW 9.2 mph - N/A   Overcast
10:35 PM 32.0 °F 23.6 °F 26.6 °F 80% 30.11 in 10.0 mi North 10.4 mph - N/A   Mostly Cloudy
10:55 PM 32.0 °F 24.2 °F 24.8 °F 75% 30.11 in 10.0 mi North 9.2 mph - N/A   Partly Cloudy
11:15 PM 30.2 °F 20.8 °F 24.8 °F 80% 30.11 in 10.0 mi North 11.5 mph - N/A   Clear
11:35 PM 30.2 °F 21.9 °F 26.6 °F 86% 30.11 in 10.0 mi North 9.2 mph - N/A   Clear
11:55 PM 30.2 °F 21.3 °F 24.8 °F 80% 30.10 in 10.0 mi North 10.4 mph - N/A   Clear